Time;durP1;ratioP1;P1;durP2;ratioP2;P2;SDS_P1;SDS_P2;PMS_P1;PMS_P2;Temp;Humidity;BMP_temperature;BMP_pressure;BME280_temperature;BME280_humidity;BME280_pressure;Samples;Min_cycle;Max_cycle;Signal;HPM_P1;HPM_P2
2022/12/01 00:01:05;;;;;;;18.73;10.55;;;11.90;57.70;;;;;;4996606;28;20026;-86
2022/12/01 00:03:32;;;;;;;20.15;11.40;;;12.00;57.40;;;;;;4996753;28;20108;-86
2022/12/01 00:06:01;;;;;;;19.23;11.80;;;12.20;56.90;;;;;;4996605;28;20030;-86
2022/12/01 00:08:28;;;;;;;19.13;11.48;;;12.10;57.10;;;;;;4998994;28;20049;-91
2022/12/01 00:10:54;;;;;;;18.10;10.88;;;12.10;57.50;;;;;;5000164;28;20029;-85
2022/12/01 00:13:20;;;;;;;19.27;11.50;;;12.30;57.10;;;;;;5000527;28;20068;-86
2022/12/01 00:15:46;;;;;;;21.23;12.07;;;12.40;56.50;;;;;;5016582;28;20090;-86
2022/12/01 00:18:11;;;;;;;24.00;13.73;;;12.50;56.40;;;;;;5016651;28;20415;-86
2022/12/01 00:20:38;;;;;;;20.52;11.88;;;12.70;56.30;;;;;;5016497;28;20022;-86
2022/12/01 00:23:04;;;;;;;18.30;11.35;;;12.80;55.90;;;;;;5000343;28;20057;-86
2022/12/01 00:25:31;;;;;;;21.98;11.75;;;12.80;55.90;;;;;;5000103;28;20089;-85
2022/12/01 00:27:57;;;;;;;16.85;10.25;;;12.60;55.80;;;;;;5000200;28;20080;-84
2022/12/01 00:30:23;;;;;;;18.38;11.10;;;12.60;55.80;;;;;;4980390;28;20113;-86
2022/12/01 00:32:49;;;;;;;16.25;10.50;;;12.50;56.50;;;;;;4999870;28;20116;-86
2022/12/01 00:35:15;;;;;;;18.60;10.68;;;12.40;56.70;;;;;;5000074;28;20018;-87
2022/12/01 00:37:41;;;;;;;18.17;10.38;;;12.50;56.80;;;;;;4999908;28;20109;-85
2022/12/01 00:40:08;;;;;;;15.98;10.80;;;12.60;56.40;;;;;;4999208;28;20121;-87
2022/12/01 00:42:35;;;;;;;14.23;8.82;;;12.60;56.40;;;;;;4999925;28;20033;-86
2022/12/01 00:45:01;;;;;;;17.55;10.27;;;12.50;56.90;;;;;;4999957;28;20022;-86
2022/12/01 00:47:27;;;;;;;17.40;10.32;;;12.50;56.80;;;;;;4999751;28;20034;-84
2022/12/01 00:49:52;;;;;;;19.23;11.70;;;12.40;56.30;;;;;;4999700;28;20094;-86
2022/12/01 00:52:19;;;;;;;18.23;10.48;;;12.20;56.80;;;;;;4999658;28;20464;-85
2022/12/01 00:54:45;;;;;;;18.70;10.57;;;12.10;56.70;;;;;;4999971;28;20018;-86
2022/12/01 00:57:11;;;;;;;17.70;10.45;;;12.10;57.00;;;;;;4999650;28;20113;-87
2022/12/01 00:59:37;;;;;;;17.25;10.63;;;12.30;56.50;;;;;;4998832;28;20033;-87
2022/12/01 01:02:05;;;;;;;27.85;11.85;;;12.20;56.50;;;;;;4999516;28;20030;-85
2022/12/01 01:04:33;;;;;;;19.48;10.80;;;11.90;56.60;;;;;;4999238;28;20022;-86
2022/12/01 01:06:58;;;;;;;17.95;10.85;;;11.90;56.90;;;;;;4999720;28;20033;-85
2022/12/01 01:09:27;;;;;;;17.80;11.35;;;11.90;56.70;;;;;;4998893;28;20022;-85
2022/12/01 01:11:54;;;;;;;18.67;11.18;;;11.90;56.30;;;;;;4986623;28;20625;-86
2022/12/01 01:14:21;;;;;;;19.17;11.73;;;11.60;57.20;;;;;;4998954;28;20026;-86
2022/12/01 01:16:47;;;;;;;19.67;11.88;;;11.60;57.40;;;;;;4999085;28;20032;-86
2022/12/01 01:19:13;;;;;;;17.25;11.05;;;11.70;56.30;;;;;;4997359;28;20081;-88
2022/12/01 01:21:38;;;;;;;19.67;11.70;;;11.50;56.20;;;;;;4999238;28;20113;-86
2022/12/01 01:24:05;;;;;;;19.80;11.55;;;11.40;56.20;;;;;;4999438;28;20475;-86
2022/12/01 01:26:31;;;;;;;19.85;12.15;;;11.40;56.10;;;;;;4999241;28;20029;-87
2022/12/01 01:29:00;;;;;;;18.25;11.82;;;11.30;56.10;;;;;;4998920;28;20107;-85
2022/12/01 01:31:27;;;;;;;18.67;11.77;;;11.10;56.10;;;;;;4998696;28;20029;-87
2022/12/01 01:33:54;;;;;;;20.63;12.85;;;11.00;56.90;;;;;;4990854;28;20408;-87
2022/12/01 01:36:20;;;;;;;21.38;13.32;;;11.10;56.90;;;;;;4985341;28;20373;-86
2022/12/01 01:38:46;;;;;;;19.60;12.05;;;11.20;56.40;;;;;;4995647;28;20018;-86
2022/12/01 01:41:12;;;;;;;18.80;11.52;;;11.10;56.50;;;;;;4979306;28;20046;-86
2022/12/01 01:43:42;;;;;;;18.40;10.80;;;10.90;56.20;;;;;;4998357;28;20477;-87
2022/12/01 01:46:17;;;;;;;26.25;14.38;;;10.80;56.40;;;;;;4998498;28;20018;-86
2022/12/01 01:48:49;;;;;;;26.65;14.80;;;10.90;56.60;;;;;;4998620;28;20033;-86
2022/12/01 01:51:19;;;;;;;21.77;12.55;;;10.90;56.20;;;;;;4998825;28;20044;-86
2022/12/01 01:53:47;;;;;;;23.05;13.80;;;10.80;56.60;;;;;;4994790;28;20572;-87
2022/12/01 01:56:13;;;;;;;26.15;14.32;;;10.80;56.80;;;;;;4995277;28;20019;-87
2022/12/01 01:58:39;;;;;;;22.35;13.45;;;11.00;56.60;;;;;;4995303;28;20022;-87
2022/12/01 02:01:05;;;;;;;25.15;13.27;;;11.10;56.40;;;;;;4995405;28;20026;-85
2022/12/01 02:03:32;;;;;;;18.90;11.90;;;11.10;55.80;;;;;;4998014;28;20033;-86
2022/12/01 02:05:58;;;;;;;19.52;11.70;;;10.90;55.80;;;;;;4998539;28;20026;-86
2022/12/01 02:08:24;;;;;;;19.02;11.20;;;10.70;55.70;;;;;;4998575;28;20073;-86
2022/12/01 02:11:10;;;;;;;20.65;12.60;;;10.40;56.10;;;;;;4997971;28;20044;-89
2022/12/01 02:13:56;;;;;;;18.00;11.68;;;10.20;57.00;;;;;;4997889;28;20021;-84
2022/12/01 02:16:21;;;;;;;18.52;11.50;;;9.90;56.80;;;;;;4999527;28;20025;-85
2022/12/01 02:19:21;;;;;;;18.70;12.18;;;9.90;57.30;;;;;;5014416;28;20029;-84
2022/12/01 02:22:06;;;;;;;21.67;13.67;;;9.90;57.60;;;;;;5001163;28;20022;-87
2022/12/01 02:25:06;;;;;;;21.27;13.30;;;10.00;58.00;;;;;;4998168;28;20104;-88
2022/12/01 02:28:13;;;;;;;23.98;13.73;;;10.20;57.70;;;;;;4997890;28;20036;-87
2022/12/01 02:30:50;;;;;;;19.13;12.18;;;10.50;57.30;;;;;;4996710;28;20026;-85
2022/12/01 02:33:35;;;;;;;22.63;13.98;;;10.50;56.60;;;;;;4998204;28;20029;-87
2022/12/01 02:36:16;;;;;;;21.30;12.55;;;10.40;58.10;;;;;;4997829;28;20064;-87
2022/12/01 02:39:03;;;;;;;23.75;14.27;;;10.50;57.10;;;;;;4998139;28;20364;-88
2022/12/01 02:41:47;;;;;;;25.80;15.35;;;10.50;56.60;;;;;;4997392;28;20123;-87
2022/12/01 02:44:34;;;;;;;23.33;14.10;;;10.30;56.90;;;;;;4997766;28;20361;-88
2022/12/01 02:47:20;;;;;;;22.15;12.38;;;10.40;57.10;;;;;;4996388;28;20076;-86
2022/12/01 02:49:52;;;;;;;20.98;13.10;;;10.20;57.30;;;;;;5013690;28;20417;-86
2022/12/01 02:52:19;;;;;;;24.25;15.05;;;10.00;57.40;;;;;;4997524;28;20026;-86
2022/12/01 02:54:47;;;;;;;24.73;15.30;;;10.20;57.40;;;;;;4997561;28;20072;-86
2022/12/01 02:57:14;;;;;;;20.83;13.00;;;10.30;57.30;;;;;;4997284;28;20109;-87
2022/12/01 02:59:48;;;;;;;20.98;13.20;;;10.40;56.50;;;;;;4997574;28;20018;-87
2022/12/01 03:02:23;;;;;;;21.05;12.70;;;10.20;56.10;;;;;;4997374;28;20037;-86
2022/12/01 03:04:54;;;;;;;20.60;12.65;;;10.00;56.60;;;;;;4997474;28;20022;-87
2022/12/01 03:07:54;;;;;;;21.80;13.07;;;9.80;56.80;;;;;;5011028;28;20032;-87
2022/12/01 03:10:47;;;;;;;22.88;13.80;;;9.60;57.20;;;;;;4978391;28;20434;-87
2022/12/01 03:13:24;;;;;;;20.35;12.88;;;9.50;57.20;;;;;;4977733;28;20108;-85
2022/12/01 03:16:12;;;;;;;21.73;13.27;;;9.30;57.10;;;;;;4994438;28;20089;-87
2022/12/01 03:19:01;;;;;;;19.58;12.63;;;9.00;57.10;;;;;;4977936;28;20022;-88
2022/12/01 03:21:55;;;;;;;21.98;13.77;;;9.00;57.90;;;;;;4977944;28;20026;-89
2022/12/01 03:24:44;;;;;;;23.35;14.80;;;9.00;58.30;;;;;;4951447;28;20029;-88
2022/12/01 03:27:13;;;;;;;24.67;15.32;;;9.20;58.10;;;;;;4996563;28;20507;-88
2022/12/01 03:29:43;;;;;;;23.20;14.25;;;9.50;57.60;;;;;;4996683;28;20022;-88
2022/12/01 03:32:22;;;;;;;23.33;15.05;;;9.60;57.50;;;;;;4996974;28;20396;-87
2022/12/01 03:34:56;;;;;;;27.77;16.60;;;9.30;58.40;;;;;;4996920;28;20025;-87
2022/12/01 03:37:31;;;;;;;27.02;16.30;;;9.10;58.80;;;;;;4993474;28;20057;-88
2022/12/01 03:39:58;;;;;;;22.52;13.90;;;9.30;58.60;;;;;;4978192;28;20046;-89
2022/12/01 03:42:50;;;;;;;25.73;14.40;;;9.30;59.00;;;;;;4977086;28;20045;-89
2022/12/01 03:45:52;;;;;;;23.42;14.82;;;9.00;59.80;;;;;;4985934;28;20068;-89
2022/12/01 03:48:18;;;;;;;25.90;14.75;;;8.70;61.40;;;;;;4996611;28;20037;-90
2022/12/01 03:50:56;;;;;;;22.52;13.80;;;9.20;60.10;;;;;;4996676;28;20026;-89
2022/12/01 03:53:26;;;;;;;24.42;14.40;;;9.30;57.80;;;;;;4996563;28;20110;-89
2022/12/01 03:55:56;;;;;;;;;;;9.30;57.30;;;;;;4996707;28;20022;-90
2022/12/01 03:58:24;;;;;;;;;;;9.30;57.30;;;;;;4996880;28;20488;-89
2022/12/01 04:00:56;;;;;;;23.40;14.90;;;9.20;57.20;;;;;;4996455;28;20257;-90
2022/12/01 04:03:24;;;;;;;22.92;15.23;;;9.10;57.60;;;;;;4996068;28;20033;-89
2022/12/01 04:05:50;;;;;;;23.05;14.20;;;9.20;57.70;;;;;;4996362;28;20022;-89
2022/12/01 04:08:16;;;;;;;28.33;15.68;;;9.30;57.40;;;;;;4996379;28;20456;-89
2022/12/01 04:10:42;;;;;;;26.65;15.95;;;9.10;57.30;;;;;;4993283;28;20537;-89
2022/12/01 04:13:15;;;;;;;28.35;17.48;;;9.10;57.60;;;;;;4977419;28;20029;-89
2022/12/01 04:15:41;;;;;;;28.02;14.60;;;9.30;57.70;;;;;;4980529;28;20378;-89
2022/12/01 04:18:07;;;;;;;24.33;14.07;;;9.40;56.80;;;;;;4996748;28;20029;-90
2022/12/01 04:20:33;;;;;;;26.55;14.77;;;9.50;56.90;;;;;;4999810;28;20045;-88
2022/12/01 04:23:04;;;;;;;23.58;14.57;;;9.20;56.10;;;;;;4977013;28;20027;-89
2022/12/01 04:25:33;;;;;;;24.30;13.63;;;9.00;57.00;;;;;;4978150;28;20046;-91
2022/12/01 04:27:58;;;;;;;23.75;14.38;;;8.80;57.20;;;;;;4992862;28;20076;-89
2022/12/01 04:30:24;;;;;;;22.13;13.02;;;8.70;57.90;;;;;;4996535;28;20110;-88
2022/12/01 04:32:50;;;;;;;24.45;15.25;;;8.60;58.20;;;;;;4996674;28;20033;-89
2022/12/01 04:35:15;;;;;;;26.77;15.10;;;8.60;58.00;;;;;;5003051;28;20069;-89
2022/12/01 04:37:41;;;;;;;25.40;15.13;;;8.80;58.20;;;;;;4997396;28;20481;-89
2022/12/01 04:40:08;;;;;;;23.02;14.68;;;9.10;57.80;;;;;;4997398;28;20050;-89
2022/12/01 04:42:33;;;;;;;24.83;15.05;;;9.30;56.70;;;;;;4997051;28;20037;-89
2022/12/01 04:44:59;;;;;;;24.90;13.75;;;9.30;56.70;;;;;;4997324;28;20030;-89
2022/12/01 04:47:28;;;;;;;24.50;13.98;;;9.30;57.30;;;;;;4996903;28;20086;-89
2022/12/01 04:49:53;;;;;;;22.55;13.55;;;9.20;57.00;;;;;;4982706;28;20023;-89
2022/12/01 04:52:19;;;;;;;20.30;12.02;;;9.30;57.20;;;;;;4993011;28;20369;-91
2022/12/01 04:54:48;;;;;;;22.67;13.52;;;9.30;56.60;;;;;;5000385;28;20025;-89
2022/12/01 04:57:13;;;;;;;20.50;12.32;;;9.20;55.80;;;;;;5001122;28;20429;-89
2022/12/01 04:59:39;;;;;;;22.65;13.68;;;9.10;56.60;;;;;;5000263;28;20022;-89
2022/12/01 05:02:05;;;;;;;20.77;12.60;;;9.00;56.20;;;;;;5001112;28;20088;-89
2022/12/01 05:04:32;;;;;;;20.27;12.60;;;8.80;56.70;;;;;;4999492;28;20046;-89
2022/12/01 05:06:58;;;;;;;20.73;11.95;;;8.60;57.40;;;;;;4999830;28;20396;-89
2022/12/01 05:09:24;;;;;;;25.60;14.50;;;8.70;57.60;;;;;;5000268;28;20476;-90
2022/12/01 05:11:51;;;;;;;21.85;14.43;;;8.80;57.50;;;;;;4999776;28;20112;-91
2022/12/01 05:14:16;;;;;;;25.23;13.70;;;8.70;57.50;;;;;;4999810;28;20026;-91
2022/12/01 05:16:46;;;;;;;25.23;13.70;;;8.70;57.90;;;;;;5001174;28;20473;-91
2022/12/01 05:21:57;;;;;;;20.67;12.30;;;9.00;57.50;;;;;;5019766;28;20165;-92
2022/12/01 05:24:23;;;;;;;20.85;12.00;;;8.80;56.10;;;;;;5000241;28;20104;-90
2022/12/01 05:26:50;;;;;;;46.95;24.88;;;8.30;57.20;;;;;;4987629;28;20038;-90
2022/12/01 05:29:16;;;;;;;121.13;56.50;;;8.10;58.90;;;;;;4979567;28;20023;-91
2022/12/01 05:31:41;;;;;;;146.35;69.18;;;8.20;59.80;;;;;;4979547;28;20038;-92
2022/12/01 05:34:10;;;;;;;77.10;37.80;;;8.40;59.70;;;;;;4993012;28;20750;-91
2022/12/01 05:36:36;;;;;;;56.20;30.38;;;8.60;59.80;;;;;;4999668;28;20022;-92
2022/12/01 05:39:23;;;;;;;33.45;18.35;;;8.70;59.70;;;;;;4999457;28;20380;-90
2022/12/01 05:41:49;;;;;;;40.67;22.58;;;8.70;59.90;;;;;;5013698;28;20054;-89
2022/12/01 05:47:09;;;;;;;68.10;38.10;;;9.20;58.70;;;;;;5043293;22;20060;-89
2022/12/01 05:49:36;;;;;;;43.38;26.30;;;9.30;57.70;;;;;;5036872;28;20392;-90
2022/12/01 05:52:02;;;;;;;32.20;20.33;;;9.30;57.10;;;;;;5035588;28;20028;-91
2022/12/01 05:54:29;;;;;;;29.33;18.33;;;9.30;57.60;;;;;;5035499;28;20018;-90
2022/12/01 05:56:55;;;;;;;40.22;23.60;;;9.30;57.20;;;;;;5055040;28;20116;-90
2022/12/01 05:59:50;;;;;;;38.05;22.95;;;9.10;56.90;;;;;;5056898;28;20116;-88
2022/12/01 06:02:16;;;;;;;36.63;21.38;;;9.10;56.80;;;;;;5068975;28;20049;-88
2022/12/01 06:04:46;;;;;;;31.73;19.42;;;9.20;57.00;;;;;;5059627;22;20041;-89
2022/12/01 06:07:22;;;;;;;31.75;19.15;;;9.00;57.50;;;;;;5054461;28;20092;-89
2022/12/01 06:10:01;;;;;;;38.08;22.25;;;8.90;58.90;;;;;;5051303;28;20044;-89
2022/12/01 06:12:28;;;;;;;36.92;21.63;;;8.70;57.20;;;;;;5049200;28;20025;-89
2022/12/01 06:14:55;;;;;;;28.88;18.60;;;8.90;56.60;;;;;;5061267;28;20387;-88
2022/12/01 06:17:29;;;;;;;34.60;19.63;;;9.00;56.70;;;;;;5043554;28;20398;-90
2022/12/01 06:19:55;;;;;;;29.35;17.15;;;9.00;56.60;;;;;;5047772;28;20033;-89
2022/12/01 06:22:21;;;;;;;28.83;15.65;;;9.00;56.20;;;;;;5040436;28;20020;-93
2022/12/01 06:24:46;;;;;;;33.15;18.33;;;9.10;56.70;;;;;;5039194;28;20357;-90
2022/12/01 06:27:12;;;;;;;29.58;14.80;;;9.20;57.30;;;;;;5038000;28;20035;-90
2022/12/01 06:29:50;;;;;;;25.30;14.40;;;9.20;55.90;;;;;;5053167;23;20044;-90
2022/12/01 06:32:16;;;;;;;25.58;14.88;;;9.00;55.20;;;;;;5053062;28;20086;-91
2022/12/01 06:34:42;;;;;;;24.00;13.80;;;9.00;55.80;;;;;;5037150;28;20025;-90
2022/12/01 06:37:14;;;;;;;24.40;14.13;;;9.00;56.70;;;;;;5036913;28;20364;-92
2022/12/01 06:39:42;;;;;;;27.60;14.15;;;8.70;57.50;;;;;;5037238;28;20021;-89
2022/12/01 06:42:11;;;;;;;25.48;14.35;;;8.80;57.40;;;;;;5033980;28;20010;-89
2022/12/01 06:44:37;;;;;;;22.70;14.43;;;8.80;58.40;;;;;;5035095;28;20021;-91
2022/12/01 06:47:07;;;;;;;27.73;14.48;;;9.00;58.40;;;;;;5033683;28;20119;-91
2022/12/01 06:49:33;;;;;;;42.00;22.85;;;9.20;58.20;;;;;;5037113;28;20017;-88
2022/12/01 06:51:59;;;;;;;78.80;39.13;;;9.20;57.60;;;;;;5030833;28;20029;-89
2022/12/01 06:54:25;;;;;;;50.45;26.50;;;9.10;57.80;;;;;;5036838;28;20585;-88
2022/12/01 06:56:51;;;;;;;36.33;20.17;;;9.30;57.60;;;;;;5036337;28;20016;-88
2022/12/01 06:59:16;;;;;;;29.83;17.30;;;9.50;57.30;;;;;;5036797;28;20372;-91
2022/12/01 07:01:42;;;;;;;31.95;17.25;;;9.60;57.00;;;;;;5036427;28;20044;-88
2022/12/01 07:04:08;;;;;;;29.63;16.50;;;9.70;57.00;;;;;;5036989;28;20032;-94
2022/12/01 07:06:33;;;;;;;27.13;16.40;;;9.80;57.10;;;;;;5038405;28;20029;-89
2022/12/01 07:08:59;;;;;;;26.45;15.57;;;9.90;56.50;;;;;;5037584;28;20522;-94
2022/12/01 07:11:25;;;;;;;24.65;15.77;;;9.70;56.20;;;;;;5036532;28;20025;-94
2022/12/01 07:13:54;;;;;;;26.90;15.93;;;9.60;57.00;;;;;;5036416;28;20410;-88
2022/12/01 07:16:21;;;;;;;26.50;15.27;;;9.00;59.80;;;;;;5036171;28;20056;-90
2022/12/01 07:18:47;;;;;;;25.73;15.55;;;9.10;58.20;;;;;;5036105;28;20021;-89
2022/12/01 07:21:14;;;;;;;25.80;15.77;;;8.70;60.20;;;;;;5036323;28;20028;-90
2022/12/01 07:23:40;;;;;;;26.73;15.65;;;9.00;59.60;;;;;;5034671;28;20032;-89
2022/12/01 07:26:10;;;;;;;24.98;14.45;;;9.40;58.90;;;;;;5051446;28;20475;-90
2022/12/01 07:28:36;;;;;;;28.27;16.55;;;9.70;58.60;;;;;;5035673;28;20025;-91
2022/12/01 07:31:20;;;;;;;22.50;14.05;;;9.60;58.50;;;;;;5036306;28;20035;-88
2022/12/01 07:33:45;;;;;;;28.70;15.63;;;9.70;58.00;;;;;;5036116;28;20028;-91
2022/12/01 07:36:12;;;;;;;28.17;16.98;;;9.70;59.30;;;;;;5035986;28;20028;-89
2022/12/01 07:38:38;;;;;;;25.20;15.10;;;9.80;58.70;;;;;;5036666;28;20099;-92
2022/12/01 07:41:13;;;;;;;25.80;16.10;;;9.90;58.70;;;;;;5036256;28;20459;-90
2022/12/01 07:43:39;;;;;;;26.58;16.33;;;10.00;58.80;;;;;;5035912;28;20025;-90
2022/12/01 07:46:20;;;;;;;30.58;18.45;;;10.00;58.80;;;;;;5035190;28;20029;-89
2022/12/01 07:48:45;;;;;;;;;;;10.00;59.70;;;;;;5021721;28;20025;-90
2022/12/01 07:51:23;;;;;;;29.02;17.23;;;10.20;58.60;;;;;;5016214;28;19956;-91
2022/12/01 07:53:50;;;;;;;28.10;16.90;;;10.40;58.80;;;;;;5123267;23;20045;-86
2022/12/01 07:56:16;;;;;;;27.77;15.65;;;10.50;58.70;;;;;;5035761;28;20115;-87
2022/12/01 07:58:42;;;;;;;25.42;15.68;;;10.80;57.50;;;;;;5018728;28;20022;-88
2022/12/01 08:01:20;;;;;;;25.83;15.82;;;10.80;57.10;;;;;;5036159;28;20028;-88
2022/12/01 08:03:48;;;;;;;26.33;16.83;;;10.60;56.80;;;;;;5035418;28;20052;-88
2022/12/01 08:06:15;;;;;;;27.65;16.80;;;10.80;56.80;;;;;;5035793;28;20086;-89
2022/12/01 08:08:41;;;;;;;25.65;13.55;;;11.10;56.30;;;;;;5027023;28;20080;-89
2022/12/01 08:11:11;;;;;;;23.38;14.10;;;11.30;55.10;;;;;;5028906;28;20018;-88
2022/12/01 08:13:37;;;;;;;22.90;13.63;;;11.60;54.70;;;;;;5020258;28;20031;-91
2022/12/01 08:16:33;;;;;;;20.50;12.73;;;11.60;53.50;;;;;;5028937;28;20025;-87
2022/12/01 08:19:02;;;;;;;22.17;12.55;;;11.50;53.30;;;;;;5035069;28;20021;-88
2022/12/01 08:21:28;;;;;;;23.20;12.70;;;11.40;53.50;;;;;;5035816;28;20033;-87
2022/12/01 08:23:55;;;;;;;24.27;13.15;;;11.70;53.80;;;;;;5035508;28;20029;-85
2022/12/01 08:26:22;;;;;;;23.88;13.23;;;12.00;53.60;;;;;;5035834;28;20029;-85
2022/12/01 08:28:54;;;;;;;22.98;13.30;;;12.20;53.00;;;;;;5038331;28;20029;-85
2022/12/01 08:31:25;;;;;;;24.45;13.38;;;12.40;52.10;;;;;;5039658;28;20021;-84
2022/12/01 08:33:53;;;;;;;24.38;13.68;;;12.30;52.10;;;;;;5039653;28;20127;-85
2022/12/01 08:36:19;;;;;;;23.83;13.57;;;12.40;52.00;;;;;;5039583;28;20057;-84
2022/12/01 08:38:49;;;;;;;20.10;12.32;;;12.70;52.60;;;;;;5039494;28;20025;-85
2022/12/01 08:41:15;;;;;;;22.17;13.25;;;13.90;50.70;;;;;;5039133;28;20021;-83
2022/12/01 08:43:43;;;;;;;22.85;13.35;;;15.80;49.00;;;;;;5039307;28;20111;-85
2022/12/01 08:46:10;;;;;;;19.17;12.70;;;17.70;45.20;;;;;;5048689;28;20028;-85
2022/12/01 08:48:36;;;;;;;22.52;13.90;;;19.10;44.00;;;;;;5059364;28;20029;-84
2022/12/01 08:51:11;;;;;;;19.38;12.77;;;20.50;43.00;;;;;;5058816;28;20111;-84
2022/12/01 08:53:39;;;;;;;35.80;27.27;;;21.40;41.80;;;;;;5058985;28;20136;-85
2022/12/01 08:56:08;;;;;;;39.95;31.13;;;22.40;41.80;;;;;;5059324;28;20455;-83
2022/12/01 08:58:34;;;;;;;213.05;123.75;;;23.20;40.10;;;;;;5059443;28;20479;-84
2022/12/01 09:01:01;;;;;;;143.85;86.65;;;23.70;39.80;;;;;;5059202;28;20024;-84
2022/12/01 09:03:27;;;;;;;65.30;46.13;;;24.30;39.40;;;;;;5058851;28;20031;-86
2022/12/01 09:05:53;;;;;;;34.65;22.45;;;24.90;38.60;;;;;;5058599;28;20119;-85
2022/12/01 09:08:30;;;;;;;20.95;14.25;;;25.30;38.50;;;;;;5059031;28;20036;-86
2022/12/01 09:10:57;;;;;;;21.55;14.55;;;25.80;38.20;;;;;;5058752;28;20025;-87
2022/12/01 09:13:22;;;;;;;18.80;12.07;;;25.80;38.40;;;;;;5058799;28;20029;-86
2022/12/01 09:16:03;;;;;;;19.25;12.20;;;26.00;37.40;;;;;;5058726;28;20028;-86
2022/12/01 09:18:30;;;;;;;17.27;11.68;;;26.00;37.40;;;;;;4708994;28;10000042;-86
2022/12/01 09:20:56;;;;;;;20.25;14.02;;;26.60;37.70;;;;;;5058254;28;20024;-87
2022/12/01 09:23:22;;;;;;;22.33;15.90;;;26.70;36.80;;;;;;5058201;28;20040;-86
2022/12/01 09:25:50;;;;;;;22.00;14.20;;;26.70;37.50;;;;;;5058465;28;20024;-85
2022/12/01 09:28:16;;;;;;;19.20;13.93;;;26.50;37.20;;;;;;5057591;28;20074;-86
2022/12/01 09:30:43;;;;;;;23.90;18.38;;;26.40;37.40;;;;;;5056900;28;20020;-84
2022/12/01 09:33:09;;;;;;;18.77;13.38;;;26.40;36.30;;;;;;5057004;28;20103;-85
2022/12/01 09:35:35;;;;;;;18.38;12.02;;;25.50;37.10;;;;;;5057834;28;20032;-87
2022/12/01 09:38:01;;;;;;;19.67;13.10;;;24.90;37.60;;;;;;5057945;28;20039;-85
2022/12/01 09:40:34;;;;;;;21.23;15.63;;;25.20;37.80;;;;;;5057252;28;20056;-85
2022/12/01 09:43:03;;;;;;;26.25;17.50;;;25.00;37.10;;;;;;5057965;28;20029;-85
2022/12/01 09:45:33;;;;;;;36.78;28.02;;;24.70;38.20;;;;;;5057547;28;20023;-84
2022/12/01 09:48:03;;;;;;;129.95;84.20;;;25.00;37.60;;;;;;5057256;28;20048;-87
2022/12/01 09:50:29;;;;;;;58.83;17.55;;;25.70;37.50;;;;;;5057223;28;20687;-86
2022/12/01 09:53:06;;;;;;;20.38;11.68;;;26.00;36.70;;;;;;5057494;28;20029;-84
2022/12/01 09:55:33;;;;;;;16.20;10.88;;;25.60;36.90;;;;;;5056102;28;20044;-85
2022/12/01 09:58:01;;;;;;;17.75;11.57;;;25.60;38.30;;;;;;5057229;28;20036;-84
2022/12/01 10:00:42;;;;;;;95.88;67.22;;;25.40;37.60;;;;;;5056872;28;20032;-89
2022/12/01 10:03:08;;;;;;;16.48;11.68;;;25.80;37.70;;;;;;5055997;28;20039;-85
2022/12/01 10:05:40;;;;;;;19.35;11.75;;;25.60;37.20;;;;;;5056514;28;20475;-86
2022/12/01 10:08:13;;;;;;;19.05;13.23;;;25.00;37.70;;;;;;5056773;28;20487;-87
2022/12/01 10:10:51;;;;;;;50.90;37.42;;;25.20;38.50;;;;;;5056891;28;20356;-86
2022/12/01 10:13:26;;;;;;;27.33;20.70;;;25.70;38.70;;;;;;5057039;28;20035;-85
2022/12/01 10:16:10;;;;;;;15.90;11.07;;;25.90;37.20;;;;;;5057492;28;20048;-86
2022/12/01 10:19:04;;;;;;;57.90;13.20;;;25.30;36.80;;;;;;5056831;28;20016;-85
2022/12/01 10:21:39;;;;;;;20.02;10.32;;;25.20;38.50;;;;;;5056583;28;20020;-85
2022/12/01 10:24:16;;;;;;;19.85;12.13;;;25.40;37.50;;;;;;5056430;28;20020;-90
2022/12/01 10:27:05;;;;;;;21.17;13.23;;;25.20;38.50;;;;;;5056403;28;20037;-85
2022/12/01 10:29:39;;;;;;;22.73;13.10;;;25.20;39.30;;;;;;5056735;28;20081;-86
2022/12/01 10:32:33;;;;;;;23.25;15.88;;;25.10;37.60;;;;;;5056878;28;20566;-86
2022/12/01 10:34:59;;;;;;;54.47;38.28;;;24.90;38.20;;;;;;5056192;28;20036;-85
2022/12/01 10:37:27;;;;;;;25.33;19.45;;;24.60;38.60;;;;;;5057360;28;20082;-86
2022/12/01 10:39:55;;;;;;;14.00;9.23;;;24.50;38.00;;;;;;5056185;28;20110;-85
2022/12/01 10:42:36;;;;;;;16.20;10.05;;;23.00;39.10;;;;;;5056320;28;20051;-85
2022/12/01 10:45:06;;;;;;;16.55;11.50;;;22.30;39.70;;;;;;5056536;28;20021;-86
2022/12/01 10:47:31;;;;;;;24.75;16.80;;;22.30;40.30;;;;;;5056790;28;20036;-84
2022/12/01 10:49:58;;;;;;;17.38;12.65;;;22.40;40.90;;;;;;5056619;28;20022;-85
2022/12/01 10:52:29;;;;;;;19.00;11.20;;;22.20;40.10;;;;;;5047757;28;20028;-86
2022/12/01 10:54:55;;;;;;;15.38;10.52;;;22.00;40.10;;;;;;5056311;28;20106;-85
2022/12/01 10:57:22;;;;;;;14.43;9.95;;;22.00;40.30;;;;;;5056698;28;20028;-85
2022/12/01 11:00:00;;;;;;;17.92;11.63;;;21.20;39.70;;;;;;5056398;28;20029;-85
2022/12/01 11:02:29;;;;;;;20.55;14.70;;;20.70;41.40;;;;;;5056150;28;20395;-85
2022/12/01 11:05:00;;;;;;;21.90;13.25;;;21.00;41.70;;;;;;5056396;28;20450;-86
2022/12/01 11:07:30;;;;;;;22.25;17.75;;;21.30;41.80;;;;;;5056210;28;20036;-85
2022/12/01 11:10:17;;;;;;;16.13;10.02;;;21.30;40.70;;;;;;5056704;28;20115;-89
2022/12/01 11:12:51;;;;;;;15.13;9.40;;;20.90;40.40;;;;;;5042260;28;20483;-85
2022/12/01 11:15:31;;;;;;;13.65;9.00;;;20.50;40.70;;;;;;5056208;28;20028;-85
2022/12/01 11:18:00;;;;;;;13.60;9.05;;;19.70;41.80;;;;;;5055932;28;20073;-86
2022/12/01 11:20:38;;;;;;;19.02;12.40;;;18.80;42.40;;;;;;5056787;28;20025;-85
2022/12/01 11:23:25;;;;;;;41.03;22.65;;;18.50;43.40;;;;;;5055943;28;20028;-85
2022/12/01 11:26:31;;;;;;;16.63;8.82;;;18.70;43.60;;;;;;5056084;28;20021;-85
2022/12/01 11:29:00;;;;;;;36.45;25.02;;;18.60;43.10;;;;;;4992654;28;20022;-85
2022/12/01 11:31:56;;;;;;;17.40;12.10;;;18.50;43.10;;;;;;4976506;28;20023;-87
2022/12/01 11:34:28;;;;;;;11.15;7.68;;;18.30;42.90;;;;;;4992453;28;20042;-85
2022/12/01 11:37:14;;;;;;;9.82;6.45;;;18.30;43.30;;;;;;4976299;28;20030;-85
2022/12/01 11:39:42;;;;;;;10.27;6.47;;;17.90;43.00;;;;;;4976688;28;20044;-85
2022/12/01 11:42:11;;;;;;;15.73;7.68;;;17.60;43.50;;;;;;4976004;28;20098;-84
2022/12/01 11:44:37;;;;;;;9.25;6.18;;;17.30;44.80;;;;;;4976163;28;20037;-84
2022/12/01 11:47:15;;;;;;;10.30;7.53;;;17.30;43.40;;;;;;4975968;28;20046;-86
2022/12/01 11:49:44;;;;;;;14.25;7.63;;;16.50;45.10;;;;;;4975898;28;20496;-85
2022/12/01 11:52:30;;;;;;;10.48;6.82;;;15.80;46.90;;;;;;4976103;28;20482;-85
2022/12/01 11:55:22;;;;;;;9.80;6.60;;;15.70;45.50;;;;;;4975663;28;20428;-85
2022/12/01 11:57:51;;;;;;;13.27;6.60;;;15.90;45.50;;;;;;4992220;28;20027;-85
2022/12/01 12:00:20;;;;;;;9.23;6.40;;;16.00;45.60;;;;;;5036180;28;20035;-86
2022/12/01 12:03:19;;;;;;;9.73;5.90;;;15.40;46.10;;;;;;5057579;28;20055;-85
2022/12/01 12:06:20;;;;;;;11.25;6.90;;;15.80;47.00;;;;;;5060106;28;20073;-85
2022/12/01 12:09:08;;;;;;;13.88;7.68;;;16.30;46.90;;;;;;5060346;28;20036;-94
2022/12/01 12:11:53;;;;;;;10.57;6.47;;;16.70;46.70;;;;;;5060674;28;20025;-91
2022/12/01 12:14:22;;;;;;;11.45;7.47;;;16.90;46.50;;;;;;5060300;28;20016;-85
2022/12/01 12:17:15;;;;;;;18.88;12.02;;;17.10;45.60;;;;;;5059675;28;20031;-85
2022/12/01 12:19:47;;;;;;;14.45;10.13;;;17.40;45.60;;;;;;5059466;28;20020;-85
2022/12/01 12:22:43;;;;;;;16.48;8.77;;;17.50;46.20;;;;;;5059232;28;20020;-86
2022/12/01 12:25:31;;;;;;;21.92;8.05;;;17.60;45.90;;;;;;5059252;28;20115;-84
2022/12/01 12:28:08;;;;;;;11.82;7.65;;;17.50;45.30;;;;;;5059183;28;20055;-85
2022/12/01 12:30:51;;;;;;;11.82;7.45;;;17.60;45.50;;;;;;5059300;28;20029;-85
2022/12/01 12:33:29;;;;;;;11.70;7.13;;;17.70;45.60;;;;;;5059357;28;20025;-85
2022/12/01 12:35:57;;;;;;;11.60;7.60;;;17.70;45.30;;;;;;4709203;28;10000098;-85
2022/12/01 12:39:01;;;;;;;12.27;7.75;;;17.80;45.70;;;;;;5059813;28;20029;-85
2022/12/01 12:41:43;;;;;;;11.65;7.40;;;17.80;46.00;;;;;;5059177;28;20534;-85
2022/12/01 12:44:34;;;;;;;12.23;7.90;;;17.70;45.60;;;;;;5059329;28;20020;-84
2022/12/01 12:47:00;;;;;;;;;;;17.70;46.00;;;;;;5059740;28;20037;-85
2022/12/01 12:49:59;;;;;;;12.82;8.32;;;17.70;45.90;;;;;;5059090;28;20375;-85
2022/12/01 12:52:40;;;;;;;15.18;9.70;;;17.80;45.70;;;;;;5059091;28;20104;-85
2022/12/01 12:55:40;;;;;;;14.57;8.55;;;17.60;45.70;;;;;;5058993;28;20405;-86
2022/12/01 12:58:33;;;;;;;17.35;10.52;;;17.60;45.80;;;;;;5031823;28;20090;-85
2022/12/01 13:01:24;;;;;;;20.75;12.40;;;17.50;45.50;;;;;;5059028;28;20047;-85
2022/12/01 13:04:05;;;;;;;17.58;10.60;;;17.40;46.00;;;;;;5059387;28;20082;-85